createdAt,value
2022-09-28T00:01:20.810Z,98.18
2022-09-28T00:03:50.535Z,98.76
2022-09-28T00:06:20.599Z,99.36
2022-09-28T00:08:51.316Z,98.25
2022-09-28T00:11:20.766Z,97.59
2022-09-28T00:13:56.674Z,98.55
2022-09-28T00:16:27.460Z,98.65
2022-09-28T00:18:55.534Z,99.31
2022-09-28T00:21:30.638Z,99.04
2022-09-28T00:24:15.700Z,99.06
2022-09-28T00:26:54.198Z,99.19
2022-09-28T00:29:21.476Z,99.98
2022-09-28T00:31:52.243Z,100.00
2022-09-28T00:34:20.056Z,100.00
2022-09-28T00:36:48.138Z,100.00
2022-09-28T00:39:16.301Z,100.00
2022-09-28T00:41:47.164Z,100.00
2022-09-28T00:44:26.445Z,99.62
2022-09-28T00:46:58.116Z,99.80
2022-09-28T00:49:52.559Z,100.00
2022-09-28T00:52:28.724Z,100.00
2022-09-28T00:54:58.623Z,100.00
2022-09-28T00:57:27.589Z,100.00
2022-09-28T00:59:55.557Z,100.00
2022-09-28T01:02:22.831Z,100.00
2022-09-28T01:04:51.480Z,100.00
2022-09-28T01:07:19.960Z,100.00
2022-09-28T01:09:48.527Z,100.00
2022-09-28T01:12:16.279Z,100.00
2022-09-28T01:14:44.971Z,100.00
2022-09-28T01:17:20.849Z,99.97
2022-09-28T01:20:15.708Z,99.82
2022-09-28T01:22:57.016Z,99.64
2022-09-28T01:25:39.169Z,99.29
2022-09-28T01:28:11.093Z,99.75
2022-09-28T01:30:44.490Z,98.46
2022-09-28T01:33:22.307Z,99.86
2022-09-28T01:35:58.103Z,99.33
2022-09-28T01:38:40.955Z,97.29
2022-09-28T01:41:10.331Z,95.76
2022-09-28T01:43:45.789Z,97.17
2022-09-28T01:46:17.765Z,97.01
2022-09-28T01:48:44.998Z,96.19
2022-09-28T01:51:21.579Z,96.43
2022-09-28T01:53:54.774Z,96.08
2022-09-28T01:56:36.854Z,96.74
2022-09-28T01:59:24.204Z,95.51
2022-09-28T02:02:09.873Z,95.03
2022-09-28T02:04:42.878Z,95.65
2022-09-28T02:07:21.525Z,97.43
2022-09-28T02:23:22.356Z,97.48
2022-09-28T02:25:59.113Z,96.81
2022-09-28T02:28:26.409Z,96.48
2022-09-28T02:30:53.783Z,96.14
2022-09-28T02:33:34.110Z,95.67
2022-09-28T02:36:03.490Z,95.00
2022-09-28T02:38:34.224Z,94.56
2022-09-28T02:41:08.334Z,95.79
2022-09-28T02:43:56.188Z,96.21
2022-09-28T02:46:47.730Z,95.35
2022-09-28T02:49:40.308Z,96.50
2022-09-28T02:52:19.715Z,97.35
2022-09-28T02:55:16.346Z,97.52
2022-09-28T02:58:08.908Z,96.67
2022-09-28T03:00:58.219Z,95.19
2022-09-28T03:03:47.470Z,97.63
2022-09-28T03:06:32.170Z,98.69
2022-09-28T03:09:20.661Z,99.68
2022-09-28T03:11:54.013Z,99.50
2022-09-28T03:14:22.141Z,96.50
2022-09-28T03:16:53.586Z,98.02
2022-09-28T03:19:27.471Z,97.62
2022-09-28T03:21:55.670Z,97.91
2022-09-28T03:24:22.989Z,96.50
2022-09-28T03:26:50.719Z,98.00
2022-09-28T03:29:20.415Z,99.10
2022-09-28T03:31:55.340Z,98.12
2022-09-28T03:34:22.958Z,98.49
2022-09-28T03:36:50.476Z,99.26
2022-09-28T03:39:20.678Z,99.29
2022-09-28T03:41:47.909Z,99.12
2022-09-28T03:44:16.284Z,98.55
2022-09-28T03:46:46.481Z,98.61
2022-09-28T03:49:13.794Z,98.95
2022-09-28T03:51:41.058Z,99.49
2022-09-28T03:54:09.269Z,99.23
2022-09-28T03:56:37.098Z,99.62
2022-09-28T03:59:05.166Z,100.00
2022-09-28T04:01:35.493Z,100.00
2022-09-28T04:04:02.846Z,100.00
2022-09-28T04:06:30.913Z,100.00
2022-09-28T04:08:58.339Z,100.00
2022-09-28T04:11:25.978Z,100.00
2022-09-28T04:13:53.300Z,100.00
2022-09-28T04:16:38.930Z,100.00
2022-09-28T04:19:15.740Z,99.65
2022-09-28T04:22:09.221Z,100.00
2022-09-28T04:24:36.586Z,100.00
2022-09-28T04:27:22.423Z,99.08
2022-09-28T04:29:49.702Z,97.76
2022-09-28T04:32:17.477Z,96.42
2022-09-28T04:34:44.788Z,96.39
2022-09-28T04:37:12.719Z,95.86
2022-09-28T04:39:43.126Z,95.10
2022-09-28T04:42:13.711Z,94.68
2022-09-28T04:44:40.976Z,95.28
2022-09-28T04:47:09.898Z,94.30
2022-09-28T04:49:55.969Z,94.72
2022-09-28T04:52:30.910Z,94.20
2022-09-28T04:54:58.210Z,94.35
2022-09-28T04:57:26.445Z,94.48
2022-09-28T04:59:55.124Z,94.40
2022-09-28T05:02:22.422Z,95.02
2022-09-28T05:05:08.727Z,95.75
2022-09-28T05:07:45.952Z,94.68
2022-09-28T05:10:13.358Z,94.85
2022-09-28T05:12:41.064Z,96.14
2022-09-28T05:15:08.847Z,96.90
2022-09-28T05:17:36.318Z,93.74
2022-09-28T05:20:29.707Z,93.62
2022-09-28T05:22:57.382Z,93.67
2022-09-28T05:25:24.833Z,94.25
2022-09-28T05:28:27.995Z,93.52
2022-09-28T05:31:33.595Z,92.82
2022-09-28T05:34:12.825Z,90.88
2022-09-28T05:36:42.641Z,89.18
2022-09-28T05:39:09.922Z,88.77
2022-09-28T05:41:37.267Z,91.52
2022-09-28T05:44:05.423Z,92.23
2022-09-28T05:46:33.973Z,92.44
2022-09-28T05:49:02.033Z,92.87
2022-09-28T05:51:29.402Z,92.48
2022-09-28T05:54:00.649Z,91.08
2022-09-28T05:56:31.374Z,90.69
2022-09-28T05:58:58.939Z,88.32
2022-09-28T06:01:29.193Z,87.01
2022-09-28T06:03:58.496Z,84.00
2022-09-28T06:06:26.190Z,84.25
2022-09-28T06:08:53.473Z,84.88
2022-09-28T06:11:31.870Z,83.12
2022-09-28T06:14:02.937Z,80.32
2022-09-28T06:16:31.891Z,80.07
2022-09-28T06:18:59.245Z,78.01
2022-09-28T06:21:57.543Z,78.03
2022-09-28T06:24:27.056Z,76.75
2022-09-28T06:26:54.312Z,76.42
2022-09-28T06:29:22.366Z,76.58
2022-09-28T06:31:49.627Z,75.35
2022-09-28T06:34:19.092Z,74.62
2022-09-28T06:37:05.264Z,74.95
2022-09-28T06:39:33.192Z,75.35
2022-09-28T06:42:03.261Z,75.00
2022-09-28T06:44:50.451Z,74.83
2022-09-28T06:47:25.099Z,74.52
2022-09-28T06:50:12.196Z,76.27
2022-09-28T06:53:08.644Z,75.11
2022-09-28T06:55:57.429Z,74.02
2022-09-28T06:58:24.979Z,75.96
2022-09-28T07:00:52.520Z,75.96
2022-09-28T07:03:22.047Z,75.40
2022-09-28T07:06:00.010Z,75.00
2022-09-28T07:09:03.515Z,73.59
2022-09-28T07:12:13.392Z,72.44
2022-09-28T07:14:50.187Z,72.39
2022-09-28T07:17:17.892Z,72.03
2022-09-28T07:19:45.198Z,72.57
2022-09-28T07:22:18.497Z,72.65
2022-09-28T07:24:48.348Z,72.19
2022-09-28T07:27:44.946Z,71.34
2022-09-28T07:51:22.179Z,61.74
2022-09-28T07:54:10.614Z,61.43
2022-09-28T07:57:01.241Z,62.03
2022-09-28T07:59:49.836Z,61.68
2022-09-28T08:02:37.218Z,59.90
2022-09-28T08:05:05.607Z,59.74
2022-09-28T08:07:34.408Z,59.08
2022-09-28T08:10:06.045Z,60.26
2022-09-28T08:12:59.246Z,61.33
2022-09-28T08:15:52.454Z,60.05
2022-09-28T08:18:33.257Z,61.17
2022-09-28T08:21:21.734Z,60.45
2022-09-28T08:23:49.418Z,59.12
2022-09-28T08:26:17.088Z,58.03
2022-09-28T08:28:47.770Z,58.92
2022-09-28T08:31:37.746Z,59.67
2022-09-28T08:34:22.555Z,57.93
2022-09-28T08:36:53.326Z,57.76
2022-09-28T08:39:39.255Z,56.13
2022-09-28T08:42:43.370Z,55.99
2022-09-28T08:45:29.024Z,55.84
2022-09-28T08:48:33.263Z,55.33
2022-09-28T08:51:18.303Z,53.56
2022-09-28T08:54:08.093Z,48.60
2022-09-28T08:56:52.781Z,47.07
2022-09-28T08:59:24.763Z,44.77
2022-09-28T09:02:04.106Z,44.04
2022-09-28T09:04:33.819Z,43.18
2022-09-28T09:07:43.932Z,41.93
2022-09-28T09:10:35.326Z,41.18
2022-09-28T09:13:39.645Z,40.58
2022-09-28T09:16:25.686Z,39.89
2022-09-28T09:19:40.376Z,36.82
2022-09-28T09:22:47.875Z,37.13
2022-09-28T09:25:21.850Z,35.92
2022-09-28T09:27:52.036Z,35.69
2022-09-28T09:30:25.498Z,37.88
2022-09-28T09:33:30.688Z,39.00
2022-09-28T09:36:53.490Z,37.20
2022-09-28T09:39:45.098Z,38.27
2022-09-28T09:43:21.072Z,41.42
2022-09-28T09:46:19.867Z,43.80
2022-09-28T09:49:18.402Z,42.82
2022-09-28T09:51:57.729Z,42.53
2022-09-28T09:54:46.794Z,41.81
2022-09-28T09:57:39.595Z,43.58
2022-09-28T10:00:28.145Z,41.20
2022-09-28T10:03:21.431Z,44.01
2022-09-28T10:05:55.615Z,43.47
2022-09-28T10:08:25.926Z,43.23
2022-09-28T10:11:07.634Z,42.84
2022-09-28T10:13:42.040Z,42.03
2022-09-28T10:16:33.060Z,41.53
2022-09-28T10:19:01.650Z,40.94
2022-09-28T10:22:02.559Z,39.49
2022-09-28T10:24:42.709Z,41.31
2022-09-28T10:27:25.658Z,40.36
2022-09-28T10:29:57.636Z,40.75
2022-09-28T10:32:26.109Z,39.24
2022-09-28T10:35:16.977Z,38.86
2022-09-28T10:37:57.030Z,38.65
2022-09-28T10:41:01.724Z,37.85
2022-09-28T10:44:06.211Z,38.04
2022-09-28T10:46:39.656Z,38.77
2022-09-28T10:49:20.139Z,39.74
2022-09-28T10:51:58.677Z,40.07
2022-09-28T10:54:38.706Z,39.89
2022-09-28T10:57:42.420Z,40.26
2022-09-28T11:00:40.711Z,41.82
2022-09-28T11:03:28.093Z,41.28
2022-09-28T11:06:07.917Z,41.27
2022-09-28T11:08:44.526Z,42.67
2022-09-28T11:11:20.084Z,42.98
2022-09-28T11:13:54.308Z,43.52
2022-09-28T11:16:31.426Z,42.27
2022-09-28T11:19:20.713Z,41.43
2022-09-28T11:21:49.417Z,41.47
2022-09-28T11:24:19.732Z,43.42
2022-09-28T11:26:50.797Z,44.41
2022-09-28T11:29:38.924Z,45.39
2022-09-28T11:32:23.810Z,46.66
2022-09-28T11:35:20.713Z,45.76
2022-09-28T11:38:03.527Z,46.32
2022-09-28T11:41:10.462Z,45.38
2022-09-28T11:43:53.636Z,44.55
2022-09-28T11:46:56.638Z,44.44
2022-09-28T11:49:53.828Z,45.34
2022-09-28T11:52:47.319Z,44.31
2022-09-28T11:55:26.758Z,44.15
2022-09-28T11:58:06.200Z,44.94
2022-09-28T12:00:40.928Z,44.86
2022-09-28T12:03:21.714Z,45.24
2022-09-28T12:05:59.218Z,45.47
2022-09-28T12:08:31.085Z,44.94
2022-09-28T12:11:15.608Z,44.54
2022-09-28T12:14:34.373Z,44.40
2022-09-28T12:17:11.342Z,46.21
2022-09-28T12:19:52.187Z,45.66
2022-09-28T12:22:25.491Z,46.07
2022-09-28T12:24:56.487Z,45.10
2022-09-28T12:27:38.835Z,44.85
2022-09-28T12:30:09.383Z,46.16
2022-09-28T12:33:27.392Z,46.05
2022-09-28T12:36:30.343Z,46.72
2022-09-28T12:39:40.772Z,47.23
2022-09-28T12:42:29.144Z,48.24
2022-09-28T12:45:17.435Z,49.85
2022-09-28T12:48:08.179Z,49.76
2022-09-28T12:50:57.916Z,49.78
2022-09-28T12:53:47.318Z,50.65
2022-09-28T12:56:42.156Z,48.38
2022-09-28T12:59:29.164Z,50.01
2022-09-28T13:02:21.460Z,49.98
2022-09-28T13:05:01.045Z,50.02
2022-09-28T13:07:40.729Z,50.18
2022-09-28T13:10:22.034Z,49.50
2022-09-28T13:13:10.345Z,49.53
2022-09-28T13:15:56.086Z,49.66
2022-09-28T13:18:42.770Z,50.93
2022-09-28T13:21:20.464Z,51.30
2022-09-28T13:23:50.369Z,50.87
2022-09-28T13:26:26.265Z,51.99
2022-09-28T13:28:59.220Z,51.73
2022-09-28T13:31:33.158Z,51.38
2022-09-28T13:34:04.236Z,51.26
2022-09-28T13:36:31.433Z,51.52
2022-09-28T13:39:00.174Z,50.84
2022-09-28T13:41:38.583Z,51.72
2022-09-28T13:44:18.107Z,52.14
2022-09-28T13:46:55.036Z,52.33
2022-09-28T13:49:45.535Z,51.25
2022-09-28T13:52:36.899Z,51.20
2022-09-28T13:55:33.404Z,51.68
2022-09-28T13:58:04.494Z,52.37
2022-09-28T14:00:45.452Z,50.80
2022-09-28T14:03:51.552Z,51.28
2022-09-28T14:06:33.252Z,52.00
2022-09-28T14:09:26.844Z,52.65
2022-09-28T14:12:03.082Z,51.76
2022-09-28T14:14:47.231Z,52.02
2022-09-28T14:17:23.637Z,52.40
2022-09-28T14:19:53.330Z,52.06
2022-09-28T14:22:28.796Z,51.89
2022-09-28T14:25:20.760Z,52.04
2022-09-28T14:28:06.657Z,51.19
2022-09-28T14:30:43.127Z,51.00
2022-09-28T14:33:28.188Z,51.10
2022-09-28T14:36:47.286Z,51.92
2022-09-28T14:39:51.112Z,52.53
2022-09-28T14:42:24.459Z,52.78
2022-09-28T14:45:06.705Z,52.84
2022-09-28T14:47:34.956Z,53.39
2022-09-28T14:50:20.180Z,54.07
2022-09-28T14:52:52.613Z,53.92
2022-09-28T14:55:27.670Z,53.83
2022-09-28T14:57:57.919Z,54.56
2022-09-28T15:00:29.331Z,54.12
2022-09-28T15:03:03.009Z,54.10
2022-09-28T15:05:38.495Z,54.18
2022-09-28T15:08:10.260Z,54.27
2022-09-28T15:10:42.028Z,55.03
2022-09-28T15:13:25.980Z,55.14
2022-09-28T15:16:10.439Z,55.81
2022-09-28T15:18:59.222Z,56.13
2022-09-28T15:21:40.988Z,55.83
2022-09-28T15:24:31.511Z,56.57
2022-09-28T15:27:14.930Z,56.65
2022-09-28T15:30:16.020Z,56.78
2022-09-28T15:32:43.228Z,57.00
2022-09-28T15:35:20.543Z,56.38
2022-09-28T15:37:51.914Z,56.81
2022-09-28T15:40:30.264Z,56.56
2022-09-28T15:42:59.349Z,56.45
2022-09-28T15:45:40.590Z,56.55
2022-09-28T15:48:31.003Z,56.16
2022-09-28T15:51:06.162Z,56.10
2022-09-28T15:53:33.845Z,56.84
2022-09-28T15:56:09.827Z,57.85
2022-09-28T15:58:43.521Z,57.66
2022-09-28T16:01:40.894Z,58.81
2022-09-28T16:04:33.073Z,59.03
2022-09-28T16:07:09.391Z,58.24
2022-09-28T16:10:04.799Z,58.16
2022-09-28T16:12:43.485Z,58.11
2022-09-28T16:15:14.226Z,57.71
2022-09-28T16:17:42.050Z,57.60
2022-09-28T16:20:28.444Z,57.54
2022-09-28T16:22:57.762Z,59.14
2022-09-28T16:25:27.011Z,58.86
2022-09-28T16:27:55.333Z,59.60
2022-09-28T16:30:33.807Z,59.75
2022-09-28T16:33:25.668Z,59.71
2022-09-28T16:35:52.983Z,59.71
2022-09-28T16:38:20.679Z,59.86
2022-09-28T16:40:50.671Z,60.60
2022-09-28T16:43:17.904Z,60.96
2022-09-28T16:45:46.245Z,61.40
2022-09-28T16:48:16.492Z,61.64
2022-09-28T16:50:45.135Z,62.01
2022-09-28T16:53:35.663Z,62.45
2022-09-28T16:56:04.740Z,62.48
2022-09-28T16:58:32.258Z,62.86
2022-09-28T17:01:00.477Z,62.84
2022-09-28T17:03:28.717Z,62.87
2022-09-28T17:05:56.585Z,63.04
2022-09-28T17:08:25.554Z,63.27
2022-09-28T17:11:18.985Z,63.89
2022-09-28T17:13:47.140Z,63.78
2022-09-28T17:16:17.900Z,64.14
2022-09-28T17:18:46.016Z,64.70
2022-09-28T17:21:16.265Z,64.22
2022-09-28T17:23:44.891Z,64.38
2022-09-28T17:26:34.395Z,64.75
2022-09-28T17:29:01.983Z,65.33
2022-09-28T17:31:30.258Z,64.99
2022-09-28T17:33:58.111Z,65.05
2022-09-28T17:36:26.653Z,66.20
2022-09-28T17:38:53.905Z,65.76
2022-09-28T17:41:21.263Z,65.99
2022-09-28T17:43:49.342Z,66.51
2022-09-28T17:46:38.710Z,66.54
2022-09-28T17:49:07.563Z,67.43
2022-09-28T17:51:39.525Z,66.64
2022-09-28T17:54:08.008Z,66.68
2022-09-28T17:56:36.500Z,66.98
2022-09-28T17:59:10.101Z,67.59
2022-09-28T18:01:39.155Z,68.50
2022-09-28T18:04:08.833Z,68.90
2022-09-28T18:06:41.001Z,67.94
2022-09-28T18:09:09.382Z,67.48
2022-09-28T18:11:42.257Z,67.95
2022-09-28T18:14:11.327Z,67.71
2022-09-28T18:16:38.935Z,68.98
2022-09-28T18:19:06.261Z,69.32
2022-09-28T18:21:33.693Z,69.59
2022-09-28T18:24:01.189Z,69.90
2022-09-28T18:26:28.458Z,69.78
2022-09-28T18:28:56.343Z,69.40
2022-09-28T18:31:23.696Z,68.64
2022-09-28T18:33:51.171Z,68.95
2022-09-28T18:36:18.443Z,70.73
2022-09-28T18:38:45.639Z,69.36
2022-09-28T18:41:16.744Z,70.16
2022-09-28T18:43:50.233Z,71.56
2022-09-28T18:46:18.444Z,71.12
2022-09-28T18:48:47.699Z,72.42
2022-09-28T18:51:15.151Z,73.48
2022-09-28T18:53:42.452Z,73.89
2022-09-28T18:56:12.991Z,73.42
2022-09-28T18:58:44.274Z,74.01
2022-09-28T19:01:29.423Z,74.98
2022-09-28T19:04:06.589Z,75.21
2022-09-28T19:06:36.898Z,75.73
2022-09-28T19:09:04.406Z,75.15
2022-09-28T19:11:31.731Z,75.46
2022-09-28T19:13:59.123Z,75.58
2022-09-28T19:16:31.239Z,76.32
2022-09-28T19:18:58.935Z,75.98
2022-09-28T19:21:29.691Z,76.09
2022-09-28T19:24:00.540Z,75.90
2022-09-28T19:26:31.324Z,75.82
2022-09-28T19:28:59.584Z,76.27
2022-09-28T19:31:28.682Z,76.39
2022-09-28T19:33:55.952Z,76.44
2022-09-28T19:36:24.827Z,76.68
2022-09-28T19:38:52.685Z,77.18
2022-09-28T19:41:44.162Z,77.54
2022-09-28T19:44:19.285Z,77.70
2022-09-28T19:46:46.714Z,77.62
2022-09-28T19:49:23.714Z,77.26
2022-09-28T19:52:14.384Z,76.15
2022-09-28T19:54:54.360Z,78.96
2022-09-28T19:57:24.632Z,79.17
2022-09-28T19:59:54.993Z,79.55
2022-09-28T20:02:24.057Z,79.08
2022-09-28T20:04:51.255Z,79.46
2022-09-28T20:07:18.584Z,79.12
2022-09-28T20:09:45.859Z,78.98
2022-09-28T20:12:13.108Z,80.07
2022-09-28T20:14:40.653Z,79.88
2022-09-28T20:17:08.117Z,79.21
2022-09-28T20:19:36.056Z,79.43
2022-09-28T20:22:03.970Z,80.59
2022-09-28T20:24:31.970Z,79.88
2022-09-28T20:26:59.326Z,79.33
2022-09-28T20:29:26.712Z,80.10
2022-09-28T20:31:53.956Z,81.55
2022-09-28T20:34:21.316Z,82.48
2022-09-28T20:36:51.253Z,82.83
2022-09-28T20:39:18.716Z,83.33
2022-09-28T20:41:47.216Z,83.38
2022-09-28T20:44:14.905Z,82.49
2022-09-28T20:46:44.099Z,81.97
2022-09-28T20:49:11.512Z,82.31
2022-09-28T20:51:38.724Z,82.48
2022-09-28T20:54:05.981Z,81.67
2022-09-28T20:56:38.078Z,81.62
2022-09-28T20:59:07.460Z,81.76
2022-09-28T21:01:35.207Z,81.70
2022-09-28T21:04:04.675Z,82.65
2022-09-28T21:06:34.879Z,82.52
2022-09-28T21:09:03.700Z,81.98
2022-09-28T21:11:32.122Z,82.79
2022-09-28T21:14:01.741Z,83.75
2022-09-28T21:16:31.383Z,84.17
2022-09-28T21:18:59.189Z,84.98
2022-09-28T21:21:28.905Z,86.39
2022-09-28T21:23:57.349Z,85.40
2022-09-28T21:26:29.457Z,85.89
2022-09-28T21:29:04.069Z,86.73
2022-09-28T21:31:38.359Z,86.79
2022-09-28T21:34:06.343Z,86.56
2022-09-28T21:36:34.222Z,87.71
2022-09-28T21:39:04.954Z,88.04
2022-09-28T21:41:34.363Z,88.11
2022-09-28T21:44:01.706Z,88.07
2022-09-28T21:46:34.013Z,87.75
2022-09-28T21:49:02.986Z,87.68
2022-09-28T21:51:31.088Z,87.36
2022-09-28T21:53:58.499Z,87.15
2022-09-28T21:56:26.785Z,87.12
2022-09-28T21:58:54.034Z,87.50
2022-09-28T22:01:25.455Z,87.16
2022-09-28T22:03:55.149Z,87.47
2022-09-28T22:06:24.798Z,88.26
2022-09-28T22:08:52.722Z,89.13
2022-09-28T22:11:22.782Z,89.66
2022-09-28T22:13:52.880Z,91.28
2022-09-28T22:16:23.012Z,91.24
2022-09-28T22:18:50.851Z,91.43
2022-09-28T22:21:26.062Z,91.87
2022-09-28T22:23:54.120Z,91.90
2022-09-28T22:26:25.621Z,92.60
2022-09-28T22:28:58.521Z,92.08
2022-09-28T22:31:28.627Z,92.84
2022-09-28T22:33:57.055Z,93.14
2022-09-28T22:36:25.922Z,93.62
2022-09-28T22:38:57.780Z,92.42
2022-09-28T22:41:25.531Z,89.91
2022-09-28T22:43:54.550Z,89.68
2022-09-28T22:46:25.339Z,90.08
2022-09-28T22:48:55.073Z,89.75
2022-09-28T22:51:24.207Z,89.99
2022-09-28T22:53:51.644Z,90.36
2022-09-28T22:56:19.352Z,90.34
2022-09-28T22:58:46.856Z,90.67
2022-09-28T23:01:19.847Z,91.24
2022-09-28T23:03:47.811Z,91.25
2022-09-28T23:06:17.002Z,91.09
2022-09-28T23:08:45.810Z,92.00
2022-09-28T23:11:13.207Z,91.68
2022-09-28T23:13:42.967Z,92.13
2022-09-28T23:16:14.794Z,91.77
2022-09-28T23:18:42.173Z,91.98
2022-09-28T23:21:15.194Z,93.02
2022-09-28T23:23:47.033Z,93.33
2022-09-28T23:26:29.494Z,93.39
2022-09-28T23:28:57.923Z,93.16
2022-09-28T23:31:28.403Z,92.87
2022-09-28T23:34:01.738Z,93.11
2022-09-28T23:36:29.398Z,91.81
2022-09-28T23:38:56.741Z,91.11
2022-09-28T23:41:24.171Z,91.74
2022-09-28T23:43:51.423Z,91.54
2022-09-28T23:46:20.875Z,92.80
2022-09-28T23:48:48.980Z,92.55
2022-09-28T23:51:17.892Z,92.73
2022-09-28T23:53:45.791Z,93.24
2022-09-28T23:56:14.562Z,94.78
2022-09-28T23:58:44.759Z,94.15
